Time;durP1;ratioP1;P1;durP2;ratioP2;P2;SDS_P1;SDS_P2;PMS_P1;PMS_P2;Temp;Humidity;BMP_temperature;BMP_pressure;BME280_temperature;BME280_humidity;BME280_pressure;Samples;Min_cycle;Max_cycle;Signal;HPM_P1;HPM_P2
2023/08/21 00:00:29;;;;;;;0.30;0.30;;;;;;;23.45;78.23;97400.84;29395;281;63009;-68
2023/08/21 00:01:00;;;;;;;0.30;0.30;;;;;;;23.45;78.12;97397.28;29394;197;64009;-68
2023/08/21 00:01:31;;;;;;;0.30;0.30;;;;;;;23.43;78.12;97400.41;29395;202;63012;-67
2023/08/21 00:02:04;;;;;;;0.30;0.30;;;;;;;23.43;78.45;97399.63;29395;244;63014;-68
2023/08/21 00:02:39;;;;;;;0.30;0.30;;;;;;;23.42;78.80;97398.81;29395;234;63009;-67
2023/08/21 00:03:10;;;;;;;0.30;0.30;;;;;;;23.42;78.90;97398.81;29395;237;63004;-68
2023/08/21 00:03:42;;;;;;;0.30;0.30;;;;;;;23.42;78.75;97403.53;29395;227;63009;-67
2023/08/21 00:04:13;;;;;;;0.30;0.30;;;;;;;23.40;78.77;97399.16;29395;218;63007;-55
2023/08/21 00:04:45;;;;;;;0.30;0.30;;;;;;;23.40;78.98;97401.13;29395;215;63008;-68
2023/08/21 00:05:17;;;;;;;0.30;0.30;;;;;;;23.40;78.82;97406.69;29395;204;63004;-68
2023/08/21 00:05:48;;;;;;;0.30;0.30;;;;;;;23.39;78.76;97407.84;29394;199;64014;-67
2023/08/21 00:06:21;;;;;;;0.30;0.30;;;;;;;23.38;78.86;97404.28;29395;197;63005;-68
2023/08/21 00:06:55;;;;;;;0.30;0.30;;;;;;;23.37;79.01;97397.13;29395;274;63009;-69
2023/08/21 00:07:26;;;;;;;0.30;0.30;;;;;;;23.36;78.81;97403.84;29395;254;63005;-55
2023/08/21 00:07:58;;;;;;;0.30;0.30;;;;;;;23.36;78.92;97395.53;29395;252;63009;-68
2023/08/21 00:08:30;;;;;;;0.25;0.25;;;;;;;23.36;78.87;97401.06;29395;197;63009;-68
2023/08/21 00:09:02;;;;;;;0.30;0.30;;;;;;;23.35;79.10;97405.00;29395;206;63009;-69
2023/08/21 00:09:35;;;;;;;0.30;0.30;;;;;;;23.35;79.18;97398.66;29395;228;63005;-69
2023/08/21 00:10:08;;;;;;;0.30;0.30;;;;;;;23.35;78.73;97399.47;29394;250;64013;-68
2023/08/21 00:10:40;;;;;;;0.30;0.30;;;;;;;23.35;79.10;97402.22;29395;260;63004;-68
2023/08/21 00:11:12;;;;;;;0.30;0.30;;;;;;;23.34;78.97;97400.63;29394;197;64013;-68
2023/08/21 00:11:47;;;;;;;0.30;0.30;;;;;;;23.33;79.25;97404.56;29395;223;63004;-67
2023/08/21 00:12:19;;;;;;;0.30;0.30;;;;;;;23.32;79.14;97402.97;29394;215;64013;-68
2023/08/21 00:12:50;;;;;;;0.30;0.30;;;;;;;23.32;79.16;97405.72;29395;227;63000;-68
2023/08/21 00:13:22;;;;;;;0.30;0.30;;;;;;;23.31;79.45;97406.88;29395;218;63009;-68
2023/08/21 00:13:54;;;;;;;0.30;0.30;;;;;;;23.31;79.68;97408.84;29395;219;63005;-56
2023/08/21 00:14:25;;;;;;;0.30;0.30;;;;;;;23.30;79.55;97402.50;29395;212;63005;-68
2023/08/21 00:14:58;;;;;;;0.30;0.30;;;;;;;23.29;79.85;97403.69;29395;235;63005;-67
2023/08/21 00:15:29;;;;;;;0.30;0.30;;;;;;;23.29;79.56;97406.44;29395;199;63009;-68
2023/08/21 00:16:00;;;;;;;0.30;0.30;;;;;;;23.28;79.93;97404.84;29394;250;64005;-68
2023/08/21 00:16:32;;;;;;;0.30;0.30;;;;;;;23.26;80.08;97404.41;29395;217;63009;-68
2023/08/21 00:17:07;;;;;;;0.30;0.30;;;;;;;23.26;80.34;97404.41;29395;205;63005;-69
2023/08/21 00:17:39;;;;;;;0.28;0.28;;;;;;;23.26;79.85;97401.63;29394;248;64003;-68
2023/08/21 00:18:11;;;;;;;0.30;0.30;;;;;;;23.24;80.31;97398.41;29395;216;63004;-67
2023/08/21 00:18:42;;;;;;;0.30;0.30;;;;;;;23.25;80.22;97408.34;29395;199;63009;-68
2023/08/21 00:19:14;;;;;;;0.30;0.30;;;;;;;23.24;80.14;97403.97;29395;211;63004;-68
2023/08/21 00:19:48;;;;;;;0.30;0.30;;;;;;;23.23;80.15;97405.12;29395;258;63009;-67
2023/08/21 00:20:23;;;;;;;0.30;0.30;;;;;;;23.23;80.44;97402.34;29395;219;63004;-67
2023/08/21 00:20:55;;;;;;;0.30;0.30;;;;;;;23.23;80.16;97401.56;29395;224;63018;-54
2023/08/21 00:21:26;;;;;;;0.30;0.30;;;;;;;23.23;80.40;97401.56;29395;303;63005;-67
2023/08/21 00:21:57;;;;;;;0.30;0.30;;;;;;;23.23;80.52;97401.56;29395;238;63009;-55
2023/08/21 00:22:28;;;;;;;0.30;0.30;;;;;;;23.22;80.58;97406.28;29395;263;63005;-67
2023/08/21 00:23:00;;;;;;;0.30;0.30;;;;;;;23.22;80.55;97392.44;29394;263;64013;-68
2023/08/21 00:23:34;;;;;;;0.30;0.30;;;;;;;23.21;80.69;97399.19;29395;223;63005;-54
2023/08/21 00:24:07;;;;;;;0.30;0.30;;;;;;;23.22;80.61;97405.50;29395;224;63009;-68
2023/08/21 00:24:38;;;;;;;0.30;0.30;;;;;;;23.21;80.44;97399.19;29395;208;63005;-67
2023/08/21 00:25:09;;;;;;;0.30;0.30;;;;;;;23.21;80.38;97398.38;29395;239;63009;-68
2023/08/21 00:25:46;;;;;;;0.30;0.30;;;;;;;23.22;80.61;97399.94;29395;245;63004;-67
2023/08/21 00:26:18;;;;;;;0.30;0.30;;;;;;;23.21;80.66;97396.41;29395;208;63009;-67
2023/08/21 00:26:53;;;;;;;0.30;0.30;;;;;;;23.22;80.77;97400.75;29395;246;63004;-68
2023/08/21 00:27:24;;;;;;;0.30;0.30;;;;;;;23.22;80.29;97400.75;29394;220;64008;-55
2023/08/21 00:27:56;;;;;;;0.30;0.30;;;;;;;23.22;80.36;97397.97;29395;235;63004;-68
2023/08/21 00:28:32;;;;;;;0.30;0.30;;;;;;;23.21;80.52;97398.38;29394;214;64014;-67
2023/08/21 00:29:04;;;;;;;0.30;0.30;;;;;;;23.21;80.30;97399.19;29394;264;64005;-67
2023/08/21 00:29:36;;;;;;;0.30;0.30;;;;;;;23.21;80.48;97401.94;29395;218;63009;-68
2023/08/21 00:30:08;;;;;;;0.30;0.30;;;;;;;23.20;80.49;97392.03;29395;247;63005;-67
2023/08/21 00:30:42;;;;;;;0.30;0.30;;;;;;;23.21;80.49;97398.38;29395;222;63009;-54
2023/08/21 00:31:14;;;;;;;0.30;0.30;;;;;;;23.20;80.55;97397.56;29395;204;63005;-69
2023/08/21 00:31:45;;;;;;;0.30;0.30;;;;;;;23.21;80.34;97398.38;29395;216;63009;-68
2023/08/21 00:32:17;;;;;;;0.30;0.30;;;;;;;23.21;80.60;97398.38;29395;221;63005;-68
2023/08/21 00:32:48;;;;;;;0.30;0.30;;;;;;;23.19;81.61;97401.50;29395;204;63009;-67
2023/08/21 00:33:19;;;;;;;0.30;0.30;;;;;;;23.15;81.74;97392.31;29395;242;63006;-67
2023/08/21 00:33:50;;;;;;;0.30;0.30;;;;;;;23.14;81.50;97399.03;29394;272;64013;-68
2023/08/21 00:34:22;;;;;;;0.30;0.30;;;;;;;23.13;81.39;97399.38;29395;247;63009;-69
2023/08/21 00:34:54;;;;;;;0.30;0.30;;;;;;;23.12;82.24;97395.00;29395;196;63009;-69
2023/08/21 00:35:29;;;;;;;0.30;0.30;;;;;;;23.09;81.81;97396.53;29395;236;63004;-68
2023/08/21 00:36:00;;;;;;;0.30;0.30;;;;;;;23.09;81.75;97392.97;29395;247;63009;-69
2023/08/21 00:36:33;;;;;;;0.30;0.30;;;;;;;23.08;81.65;97396.88;29395;197;63010;-68
2023/08/21 00:37:11;;;;;;;0.30;0.30;;;;;;;23.07;81.76;97393.31;29395;211;63009;-69
2023/08/21 00:37:43;;;;;;;0.30;0.30;;;;;;;23.07;81.32;97398.84;29395;236;63005;-68
2023/08/21 00:38:14;;;;;;;0.30;0.30;;;;;;;23.07;81.50;97393.31;29395;196;63009;-55
2023/08/21 00:38:45;;;;;;;0.30;0.30;;;;;;;23.06;81.63;97392.53;29395;206;63005;-69
2023/08/21 00:39:17;;;;;;;0.30;0.30;;;;;;;23.05;81.35;97401.19;29394;266;64013;-68
2023/08/21 00:39:48;;;;;;;0.30;0.30;;;;;;;23.05;81.64;97398.41;29395;270;63004;-69
2023/08/21 00:40:19;;;;;;;0.30;0.30;;;;;;;23.05;81.55;97396.44;29395;218;63009;-55
2023/08/21 00:40:51;;;;;;;0.30;0.30;;;;;;;23.04;81.68;97394.03;29395;215;63004;-69
2023/08/21 00:41:23;;;;;;;0.30;0.30;;;;;;;23.04;81.80;97392.06;29395;202;63009;-69
2023/08/21 00:41:55;;;;;;;0.30;0.30;;;;;;;23.04;81.71;97388.50;29395;235;63004;-55
2023/08/21 00:42:27;;;;;;;0.30;0.30;;;;;;;23.03;81.73;97393.25;29395;196;63008;-68
2023/08/21 00:42:58;;;;;;;0.30;0.30;;;;;;;23.03;81.83;97393.25;29395;263;63004;-69
2023/08/21 00:43:30;;;;;;;0.30;0.30;;;;;;;23.04;81.54;97394.03;29395;224;63009;-69
2023/08/21 00:44:02;;;;;;;0.30;0.30;;;;;;;23.03;81.77;97396.00;29395;223;63005;-69
2023/08/21 00:44:33;;;;;;;0.30;0.30;;;;;;;23.03;81.56;97386.91;29394;197;64013;-68
2023/08/21 00:45:08;;;;;;;0.30;0.30;;;;;;;23.02;81.64;97394.41;29395;272;63005;-68
2023/08/21 00:45:42;;;;;;;0.30;0.30;;;;;;;23.03;81.62;97392.44;29395;261;63009;-68
2023/08/21 00:46:15;;;;;;;0.30;0.30;;;;;;;23.02;81.34;97390.84;29395;207;63005;-67
2023/08/21 00:46:47;;;;;;;0.30;0.30;;;;;;;23.02;81.57;97390.84;29395;221;63009;-68
2023/08/21 00:47:19;;;;;;;0.30;0.30;;;;;;;23.01;81.35;97384.50;29395;214;63004;-56
2023/08/21 00:47:51;;;;;;;0.30;0.30;;;;;;;23.02;81.25;97385.28;29395;218;63009;-69
2023/08/21 00:48:22;;;;;;;0.30;0.30;;;;;;;23.02;81.74;97385.28;29395;213;63004;-69
2023/08/21 00:48:54;;;;;;;0.30;0.30;;;;;;;23.02;81.52;97388.06;29395;210;63009;-68
2023/08/21 00:49:25;;;;;;;0.30;0.30;;;;;;;23.03;81.49;97384.13;29395;206;63007;-68
2023/08/21 00:49:57;;;;;;;0.30;0.30;;;;;;;23.03;81.42;97392.44;29394;208;64013;-68
2023/08/21 00:50:29;;;;;;;0.30;0.30;;;;;;;23.03;81.52;97386.91;29395;229;63005;-68
2023/08/21 00:51:00;;;;;;;0.30;0.30;;;;;;;23.02;81.25;97386.09;29394;229;64014;-55
2023/08/21 00:51:32;;;;;;;0.30;0.30;;;;;;;23.03;81.43;97386.91;29395;236;63005;-68
2023/08/21 00:52:04;;;;;;;0.30;0.30;;;;;;;23.03;81.15;97386.91;29395;224;63009;-68
2023/08/21 00:52:39;;;;;;;0.30;0.30;;;;;;;23.04;81.05;97389.31;29395;269;63005;-68
2023/08/21 00:53:11;;;;;;;0.30;0.30;;;;;;;23.04;80.99;97382.97;29395;216;63009;-69
2023/08/21 00:53:43;;;;;;;0.28;0.28;;;;;;;23.05;80.62;97379.84;29395;242;63005;-68
2023/08/21 00:54:16;;;;;;;0.30;0.30;;;;;;;23.06;80.59;97383.41;29395;245;63009;-68
2023/08/21 00:54:47;;;;;;;0.30;0.30;;;;;;;23.07;80.50;97387.78;29395;302;63004;-68
2023/08/21 00:55:19;;;;;;;0.30;0.30;;;;;;;23.08;80.56;97383.06;29395;206;63009;-69
2023/08/21 00:55:51;;;;;;;0.30;0.30;;;;;;;23.09;80.32;97384.66;29395;197;63004;-68
2023/08/21 00:56:23;;;;;;;0.30;0.30;;;;;;;23.09;80.34;97384.66;29394;218;64013;-68
2023/08/21 00:56:54;;;;;;;0.30;0.30;;;;;;;23.09;80.35;97371.63;29395;202;63004;-68
2023/08/21 00:57:26;;;;;;;0.30;0.30;;;;;;;23.10;80.13;97389.03;29395;217;63008;-68
2023/08/21 00:57:59;;;;;;;0.30;0.30;;;;;;;23.10;80.31;97380.72;29395;254;63010;-54
2023/08/21 00:58:30;;;;;;;0.30;0.30;;;;;;;23.09;80.48;97377.16;29395;229;63009;-68
2023/08/21 00:59:02;;;;;;;0.30;0.30;;;;;;;23.09;80.57;97379.91;29395;219;63005;-55
2023/08/21 00:59:34;;;;;;;0.30;0.30;;;;;;;23.09;80.64;97373.59;29395;209;63009;-69
2023/08/21 01:00:10;;;;;;;0.30;0.30;;;;;;;23.09;81.03;97373.59;29395;198;63005;-68
2023/08/21 01:00:49;;;;;;;0.30;0.30;;;;;;;23.09;81.21;97379.13;29395;222;63009;-55
2023/08/21 01:01:27;;;;;;;0.30;0.30;;;;;;;23.08;81.13;97381.09;29395;223;63005;-68
2023/08/21 01:02:00;;;;;;;0.30;0.30;;;;;;;23.08;81.14;97378.31;29394;240;64013;-69
2023/08/21 01:02:32;;;;;;;0.30;0.30;;;;;;;23.08;81.03;97383.06;29395;251;63004;-69
2023/08/21 01:03:06;;;;;;;0.30;0.30;;;;;;;23.08;80.77;97380.28;29395;250;63009;-69
2023/08/21 01:03:38;;;;;;;0.30;0.30;;;;;;;23.05;80.76;97381.81;29395;258;63004;-67
2023/08/21 01:04:09;;;;;;;0.30;0.30;;;;;;;23.04;81.44;97377.44;29395;234;63009;-69
2023/08/21 01:04:41;;;;;;;0.30;0.30;;;;;;;23.02;81.36;97386.09;29395;260;63004;-55
2023/08/21 01:05:13;;;;;;;0.30;0.30;;;;;;;23.01;81.32;97376.19;29395;233;63009;-67
2023/08/21 01:05:46;;;;;;;0.30;0.30;;;;;;;23.00;81.39;97377.34;29395;259;63005;-68
2023/08/21 01:06:22;;;;;;;0.30;0.30;;;;;;;22.99;81.45;97380.47;29395;217;63024;-67
2023/08/21 01:06:53;;;;;;;0.30;0.30;;;;;;;22.98;81.50;97379.69;29395;217;63005;-69
2023/08/21 01:07:25;;;;;;;0.30;0.30;;;;;;;22.97;81.65;97377.28;29394;212;64013;-68
2023/08/21 01:08:03;;;;;;;0.30;0.30;;;;;;;22.94;81.63;97376.03;29395;260;63005;-69
2023/08/21 01:08:50;;;;;;;0.30;0.30;;;;;;;22.93;81.82;97376.38;29395;202;63009;-55
2023/08/21 01:09:31;;;;;;;0.30;0.30;;;;;;;22.91;82.01;97375.94;29395;222;63004;-55
2023/08/21 01:10:15;;;;;;;0.37;0.37;;;;;;;22.90;82.02;97380.69;29395;263;63009;-68
2023/08/21 01:10:56;;;;;;;0.40;0.40;;;;;;;22.88;82.37;97379.44;29395;298;63004;-68
2023/08/21 01:11:58;;;;;;;0.30;0.30;;;;;;;22.86;82.12;97376.25;29417;280;63014;-68
2023/08/21 01:12:57;;;;;;;0.40;0.40;;;;;;;22.83;82.46;97377.78;29416;219;64008;-67
2023/08/21 01:13:40;;;;;;;;;;;;;;;22.82;82.55;97375.38;29996;982;6005;-67
2023/08/21 01:14:51;;;;;;;0.30;0.30;;;;;;;22.79;82.87;97370.56;29400;250;63009;-68
2023/08/21 01:15:25;;;;;;;0.30;0.30;;;;;;;22.77;82.72;97384.72;29395;197;63005;-69
2023/08/21 01:16:03;;;;;;;0.30;0.30;;;;;;;22.76;82.85;97393.38;29395;240;63009;-68
2023/08/21 01:16:37;;;;;;;0.30;0.30;;;;;;;22.74;82.72;97386.25;29395;264;63005;-69
2023/08/21 01:17:12;;;;;;;0.30;0.30;;;;;;;22.73;82.76;97379.09;29395;212;63009;-68
2023/08/21 01:17:46;;;;;;;0.30;0.30;;;;;;;22.71;82.86;97381.41;29394;216;64009;-69
2023/08/21 01:18:20;;;;;;;0.30;0.30;;;;;;;22.72;83.01;97383.03;29395;283;63009;-57
2023/08/21 01:18:55;;;;;;;0.30;0.30;;;;;;;22.71;83.10;97381.41;29395;212;63004;-68
2023/08/21 01:19:41;;;;;;;0.30;0.30;;;;;;;22.70;83.06;97385.34;29395;210;63008;-69
2023/08/21 01:20:14;;;;;;;0.30;0.30;;;;;;;22.69;82.83;97378.22;29395;240;63004;-68
2023/08/21 01:20:47;;;;;;;0.30;0.30;;;;;;;22.68;83.21;97387.66;29395;298;63009;-68
2023/08/21 01:21:19;;;;;;;0.30;0.30;;;;;;;22.69;83.13;97380.97;29395;216;63005;-69
2023/08/21 01:21:50;;;;;;;0.30;0.30;;;;;;;22.68;83.19;97382.13;29395;204;63009;-68
2023/08/21 01:22:35;;;;;;;0.30;0.30;;;;;;;22.67;83.21;97386.06;29395;199;63005;-69
2023/08/21 01:23:07;;;;;;;0.30;0.30;;;;;;;22.67;82.95;97385.25;29394;284;64013;-68
2023/08/21 01:23:42;;;;;;;0.30;0.30;;;;;;;22.67;82.85;97386.06;29395;210;63005;-69
2023/08/21 01:24:14;;;;;;;0.30;0.30;;;;;;;22.65;82.77;97380.09;29395;274;63009;-68
2023/08/21 01:24:45;;;;;;;0.30;0.30;;;;;;;22.66;83.03;97389.19;29395;217;63004;-68
2023/08/21 01:25:16;;;;;;;0.30;0.30;;;;;;;22.65;82.79;97388.38;29395;247;63009;-68
2023/08/21 01:25:48;;;;;;;0.30;0.30;;;;;;;22.64;82.90;97381.25;29395;218;63004;-68
2023/08/21 01:26:19;;;;;;;0.30;0.30;;;;;;;22.65;82.90;97376.53;29395;198;63009;-68
2023/08/21 01:26:51;;;;;;;0.30;0.30;;;;;;;22.64;83.13;97381.25;29395;215;63004;-67
2023/08/21 01:27:23;;;;;;;0.30;0.30;;;;;;;22.64;83.06;97386.78;29395;239;63008;-68
2023/08/21 01:27:54;;;;;;;0.30;0.30;;;;;;;22.63;83.17;97385.19;29395;202;63005;-68
2023/08/21 01:28:26;;;;;;;0.30;0.30;;;;;;;22.63;83.17;97384.38;29394;239;64014;-68
2023/08/21 01:28:57;;;;;;;0.30;0.30;;;;;;;22.63;83.11;97387.13;29395;246;63005;-68
2023/08/21 01:29:29;;;;;;;0.30;0.30;;;;;;;22.63;83.10;97390.72;29395;234;63009;-69
2023/08/21 01:30:03;;;;;;;0.30;0.30;;;;;;;22.61;83.08;97390.25;29395;252;63005;-68
2023/08/21 01:30:36;;;;;;;0.30;0.30;;;;;;;22.60;83.37;97388.66;29395;221;63009;-68
2023/08/21 01:31:31;;;;;;;0.30;0.30;;;;;;;22.60;83.30;97391.44;29395;206;63005;-55
2023/08/21 01:32:12;;;;;;;0.30;0.30;;;;;;;22.60;82.87;97391.44;29395;241;63009;-68
2023/08/21 01:33:13;;;;;;;0.30;0.30;;;;;;;22.59;82.88;97384.28;29395;233;63004;-68
2023/08/21 01:33:53;;;;;;;0.30;0.30;;;;;;;22.60;82.97;97390.62;29394;237;64013;-68
2023/08/21 01:34:26;;;;;;;0.30;0.30;;;;;;;22.59;83.06;97384.28;29417;268;63004;-67
2023/08/21 01:34:59;;;;;;;0.30;0.30;;;;;;;22.60;82.99;97385.09;29373;275;63014;-68
2023/08/21 01:35:31;;;;;;;0.30;0.30;;;;;;;22.59;83.13;97389.03;29395;214;63005;-69
2023/08/21 01:36:04;;;;;;;0.30;0.30;;;;;;;22.59;82.88;97389.81;29395;234;63009;-68
2023/08/21 01:36:37;;;;;;;0.30;0.30;;;;;;;22.59;83.03;97389.81;29395;210;63005;-55
2023/08/21 01:37:09;;;;;;;0.30;0.30;;;;;;;22.58;83.05;97388.22;29395;205;63009;-56
2023/08/21 01:37:41;;;;;;;0.30;0.30;;;;;;;22.57;83.13;97391.34;29395;238;63007;-68
2023/08/21 01:38:13;;;;;;;0.30;0.30;;;;;;;22.56;83.21;97385.00;29395;219;63009;-55
2023/08/21 01:38:45;;;;;;;0.30;0.30;;;;;;;22.56;83.35;97387.78;29394;216;64009;-56
2023/08/21 01:39:17;;;;;;;0.30;0.30;;;;;;;22.56;83.31;97390.53;29394;197;64013;-69
2023/08/21 01:39:48;;;;;;;0.30;0.30;;;;;;;22.56;83.51;97390.53;29395;213;63014;-69
2023/08/21 01:40:23;;;;;;;0.30;0.30;;;;;;;22.57;83.32;97391.34;29395;228;63009;-69
2023/08/21 01:40:54;;;;;;;0.30;0.30;;;;;;;22.57;83.20;97391.34;29395;237;63004;-55
2023/08/21 01:41:26;;;;;;;0.30;0.30;;;;;;;22.55;83.27;97388.94;29395;240;63009;-55
2023/08/21 01:41:58;;;;;;;0.30;0.30;;;;;;;22.56;83.58;97389.72;29395;241;63004;-68
2023/08/21 01:42:29;;;;;;;0.30;0.30;;;;;;;22.55;83.15;97383.41;29395;287;63008;-69
2023/08/21 01:43:00;;;;;;;0.30;0.30;;;;;;;22.56;83.19;97390.53;29395;252;63005;-68
2023/08/21 01:43:33;;;;;;;0.30;0.30;;;;;;;22.55;83.08;97391.69;29395;207;63009;-70
2023/08/21 01:44:05;;;;;;;0.30;0.30;;;;;;;22.56;83.41;97384.19;29395;262;63005;-68
2023/08/21 01:44:39;;;;;;;0.30;0.30;;;;;;;22.56;83.18;97385.00;29394;247;64013;-55
2023/08/21 01:45:10;;;;;;;0.30;0.30;;;;;;;22.56;82.84;97390.53;29395;218;63000;-68
2023/08/21 01:45:41;;;;;;;0.30;0.30;;;;;;;22.56;83.06;97387.78;29395;205;63009;-69
2023/08/21 01:46:13;;;;;;;0.30;0.30;;;;;;;22.57;83.24;97388.56;29394;239;64009;-70
2023/08/21 01:46:44;;;;;;;0.30;0.30;;;;;;;22.57;83.07;97385.81;29395;214;63014;-55
2023/08/21 01:47:15;;;;;;;0.30;0.30;;;;;;;22.56;83.20;97379.47;29395;292;63004;-68
2023/08/21 01:47:46;;;;;;;0.30;0.30;;;;;;;22.56;83.21;97385.00;29395;206;63009;-69
2023/08/21 01:48:17;;;;;;;0.30;0.30;;;;;;;22.56;83.15;97385.00;29395;265;63004;-69
2023/08/21 01:48:49;;;;;;;0.30;0.30;;;;;;;22.56;82.89;97385.00;29395;220;63008;-55
2023/08/21 01:49:20;;;;;;;0.30;0.30;;;;;;;22.56;83.11;97385.00;29395;214;63004;-68
2023/08/21 01:49:52;;;;;;;0.30;0.30;;;;;;;22.56;82.92;97376.72;29395;292;63009;-68
2023/08/21 01:50:24;;;;;;;0.30;0.30;;;;;;;22.56;82.69;97385.00;29394;237;64009;-55
2023/08/21 01:50:58;;;;;;;0.30;0.30;;;;;;;22.56;82.86;97382.25;29395;223;63009;-55
2023/08/21 01:51:29;;;;;;;0.30;0.30;;;;;;;22.57;82.91;97385.81;29395;233;63005;-69
2023/08/21 01:52:01;;;;;;;0.30;0.30;;;;;;;22.56;82.43;97385.00;29395;218;63009;-68
2023/08/21 01:52:32;;;;;;;0.30;0.30;;;;;;;22.57;82.37;97386.59;29395;237;63005;-69
2023/08/21 01:53:05;;;;;;;0.30;0.30;;;;;;;22.57;82.32;97378.31;29395;248;63009;-68
2023/08/21 01:53:36;;;;;;;0.30;0.30;;;;;;;22.58;82.16;97382.69;29395;261;63005;-69
2023/08/21 01:54:07;;;;;;;0.20;0.20;;;;;;;22.59;82.13;97384.28;29395;218;63013;-68
2023/08/21 01:54:38;;;;;;;0.30;0.30;;;;;;;22.58;82.09;97388.22;29395;218;63004;-68
2023/08/21 01:55:11;;;;;;;0.30;0.30;;;;;;;22.59;82.32;97386.25;29395;232;63009;-68
2023/08/21 01:55:42;;;;;;;0.30;0.30;;;;;;;22.59;81.86;97389.03;29394;223;64009;-69
2023/08/21 01:56:13;;;;;;;0.30;0.30;;;;;;;22.58;81.84;97382.69;29395;232;63009;-68
2023/08/21 01:56:44;;;;;;;0.30;0.30;;;;;;;22.60;82.05;97380.38;29395;216;63004;-67
2023/08/21 01:57:16;;;;;;;0.30;0.30;;;;;;;22.59;81.70;97381.53;29395;220;63009;-68
2023/08/21 01:57:47;;;;;;;0.30;0.30;;;;;;;22.59;81.78;97380.72;29395;244;63008;-55
2023/08/21 01:58:18;;;;;;;0.30;0.30;;;;;;;22.59;81.56;97380.72;29395;199;63009;-68
2023/08/21 01:58:51;;;;;;;0.30;0.30;;;;;;;22.59;81.76;97383.50;29395;231;63005;-69
2023/08/21 01:59:23;;;;;;;0.30;0.30;;;;;;;22.59;81.78;97377.94;29395;263;63009;-67
2023/08/21 01:59:54;;;;;;;0.30;0.30;;;;;;;22.57;81.88;97375.53;29394;230;64009;-68
2023/08/21 02:00:25;;;;;;;0.30;0.30;;;;;;;22.58;81.89;97377.16;29395;197;63009;-69
2023/08/21 02:01:00;;;;;;;0.30;0.30;;;;;;;22.57;82.08;97381.06;29395;247;63005;-69
2023/08/21 02:01:31;;;;;;;0.30;0.30;;;;;;;22.59;81.83;97389.81;29395;248;63009;-69
2023/08/21 02:02:02;;;;;;;0.30;0.30;;;;;;;22.58;81.70;97382.69;29395;246;63004;-70
2023/08/21 02:02:34;;;;;;;0.30;0.30;;;;;;;22.59;81.69;97375.19;29395;223;63014;-68
2023/08/21 02:03:05;;;;;;;0.30;0.30;;;;;;;22.58;81.55;97382.69;29395;213;63004;-69
2023/08/21 02:03:37;;;;;;;0.30;0.30;;;;;;;22.59;81.34;97375.19;29395;197;63009;-55
2023/08/21 02:04:09;;;;;;;0.30;0.30;;;;;;;22.59;81.39;97377.94;29395;248;63004;-68
2023/08/21 02:04:40;;;;;;;0.35;0.35;;;;;;;22.59;81.40;97375.19;29395;299;63008;-68
2023/08/21 02:05:11;;;;;;;0.30;0.30;;;;;;;22.59;81.29;97381.53;29394;219;64009;-67
2023/08/21 02:05:42;;;;;;;0.30;0.30;;;;;;;22.59;81.37;97378.75;29395;223;63009;-68
2023/08/21 02:06:14;;;;;;;0.30;0.30;;;;;;;22.58;81.40;97382.69;29395;212;63005;-67
2023/08/21 02:06:45;;;;;;;0.30;0.30;;;;;;;22.60;80.99;97379.56;29395;258;63009;-55
2023/08/21 02:07:16;;;;;;;0.30;0.30;;;;;;;22.59;81.12;97378.75;29395;263;63005;-69
2023/08/21 02:07:47;;;;;;;0.30;0.30;;;;;;;22.59;80.92;97378.75;29395;203;63013;-69
2023/08/21 02:08:18;;;;;;;0.30;0.30;;;;;;;22.59;80.98;97376.00;29395;294;63005;-67
2023/08/21 02:08:50;;;;;;;0.40;0.40;;;;;;;22.59;81.03;97378.75;29394;245;64013;-68
2023/08/21 02:09:21;;;;;;;0.30;0.30;;;;;;;22.59;81.30;97378.75;29395;209;63004;-54
2023/08/21 02:09:52;;;;;;;0.30;0.30;;;;;;;22.60;81.11;97374.84;29394;213;64013;-54
2023/08/21 02:10:23;;;;;;;0.30;0.30;;;;;;;22.61;80.86;97383.94;29395;206;63011;-68
2023/08/21 02:10:55;;;;;;;0.30;0.30;;;;;;;22.60;80.91;97374.84;29395;234;63009;-68
2023/08/21 02:11:26;;;;;;;0.30;0.30;;;;;;;22.60;81.23;97377.59;29395;210;63004;-67
2023/08/21 02:11:57;;;;;;;0.30;0.30;;;;;;;22.60;81.04;97379.56;29395;263;63008;-67
2023/08/21 02:12:28;;;;;;;0.30;0.30;;;;;;;22.59;81.25;97378.75;29395;217;63005;-68
2023/08/21 02:13:02;;;;;;;0.30;0.30;;;;;;;22.59;81.11;97378.75;29395;211;63009;-68
2023/08/21 02:13:33;;;;;;;0.30;0.30;;;;;;;22.58;81.15;97377.16;29395;215;63001;-68
2023/08/21 02:14:07;;;;;;;0.30;0.30;;;;;;;22.58;81.28;97379.91;29394;220;64013;-55
2023/08/21 02:14:39;;;;;;;0.30;0.30;;;;;;;22.58;81.04;97379.13;29395;218;63005;-68
2023/08/21 02:15:10;;;;;;;0.30;0.30;;;;;;;22.57;81.31;97381.06;29395;256;63009;-68
2023/08/21 02:15:42;;;;;;;0.30;0.30;;;;;;;22.56;81.37;97371.19;29395;243;63005;-68
2023/08/21 02:16:15;;;;;;;0.30;0.30;;;;;;;22.56;81.29;97373.13;29395;272;63009;-67
2023/08/21 02:16:47;;;;;;;0.30;0.30;;;;;;;22.56;81.50;97373.94;29394;243;64004;-68
2023/08/21 02:17:18;;;;;;;0.30;0.30;;;;;;;22.55;81.46;97374.28;29395;248;63016;-55
2023/08/21 02:17:49;;;;;;;0.30;0.30;;;;;;;22.54;81.46;97369.94;29395;203;63009;-68
2023/08/21 02:18:20;;;;;;;0.30;0.30;;;;;;;22.54;81.29;97370.72;29395;294;63009;-67
2023/08/21 02:18:53;;;;;;;0.30;0.30;;;;;;;22.54;81.57;97375.47;29395;273;63004;-68
2023/08/21 02:19:26;;;;;;;0.30;0.30;;;;;;;22.53;81.27;97374.66;29394;286;64013;-68
2023/08/21 02:19:57;;;;;;;0.30;0.30;;;;;;;22.52;81.34;97367.56;29395;261;63005;-68
2023/08/21 02:20:29;;;;;;;0.30;0.30;;;;;;;22.52;81.46;97370.31;29395;202;63009;-68
2023/08/21 02:21:03;;;;;;;0.20;0.20;;;;;;;22.52;81.56;97372.28;29395;215;63005;-67
2023/08/21 02:21:36;;;;;;;0.30;0.30;;;;;;;22.53;81.26;97368.31;29395;231;63009;-68
2023/08/21 02:22:07;;;;;;;0.30;0.30;;;;;;;22.53;81.27;97373.84;29394;197;64009;-69
2023/08/21 02:22:39;;;;;;;0.30;0.30;;;;;;;22.53;81.21;97373.84;29395;285;63009;-67
2023/08/21 02:23:10;;;;;;;0.30;0.30;;;;;;;22.52;81.26;97367.56;29395;252;63005;-55
2023/08/21 02:23:44;;;;;;;0.30;0.30;;;;;;;22.54;81.11;97367.97;29395;205;63009;-56
2023/08/21 02:24:18;;;;;;;0.30;0.30;;;;;;;22.54;81.33;97369.94;29395;270;63004;-67
2023/08/21 02:24:49;;;;;;;0.30;0.30;;;;;;;22.54;81.15;97370.72;29395;263;63009;-67
2023/08/21 02:25:21;;;;;;;0.30;0.30;;;;;;;22.54;81.11;97376.25;29395;241;63004;-69
2023/08/21 02:25:52;;;;;;;0.30;0.30;;;;;;;22.55;80.97;97371.53;29395;246;63009;-68
2023/08/21 02:26:24;;;;;;;0.30;0.30;;;;;;;22.55;81.15;97371.53;29395;197;63004;-68
2023/08/21 02:26:58;;;;;;;0.30;0.30;;;;;;;22.55;81.01;97377.06;29394;222;64006;-68
2023/08/21 02:27:30;;;;;;;0.30;0.30;;;;;;;22.54;81.38;97370.72;29395;203;63005;-68
2023/08/21 02:28:03;;;;;;;0.30;0.30;;;;;;;22.53;81.25;97377.41;29395;259;63009;-68
2023/08/21 02:28:35;;;;;;;0.30;0.30;;;;;;;22.53;81.59;97373.84;29395;302;63010;-67
2023/08/21 02:29:06;;;;;;;0.30;0.30;;;;;;;22.52;81.34;97373.09;29395;245;63009;-68
2023/08/21 02:29:38;;;;;;;0.30;0.30;;;;;;;22.52;81.39;97378.63;29395;248;63005;-68
2023/08/21 02:30:10;;;;;;;0.30;0.30;;;;;;;22.51;81.50;97365.94;29395;203;63009;-70
2023/08/21 02:30:42;;;;;;;0.30;0.30;;;;;;;22.50;81.28;97375.41;29394;203;64009;-69
2023/08/21 02:31:13;;;;;;;0.30;0.30;;;;;;;22.50;81.53;97380.13;29395;226;63009;-68
2023/08/21 02:31:44;;;;;;;0.30;0.30;;;;;;;22.48;81.53;97376.91;29395;230;63004;-69
2023/08/21 02:32:16;;;;;;;0.30;0.30;;;;;;;22.47;81.39;97378.87;29395;202;63009;-68
2023/08/21 02:32:48;;;;;;;0.30;0.30;;;;;;;22.46;81.61;97380.03;29395;283;63004;-67
2023/08/21 02:33:19;;;;;;;0.30;0.30;;;;;;;22.45;81.92;97372.91;29394;228;64013;-69
2023/08/21 02:33:51;;;;;;;0.30;0.30;;;;;;;22.43;82.19;97378.00;29395;209;63004;-68
2023/08/21 02:34:23;;;;;;;0.30;0.30;;;;;;;22.41;81.98;97377.53;29395;224;63008;-68
2023/08/21 02:34:54;;;;;;;0.30;0.30;;;;;;;22.40;82.14;97376.75;29395;229;63005;-68
2023/08/21 02:35:26;;;;;;;0.30;0.30;;;;;;;22.39;82.32;97374.34;29395;274;63009;-69
2023/08/21 02:35:57;;;;;;;0.30;0.30;;;;;;;22.37;82.23;97380.22;29394;248;64009;-54
2023/08/21 02:36:28;;;;;;;0.30;0.30;;;;;;;22.36;82.48;97375.03;29394;209;64014;-67
2023/08/21 02:37:02;;;;;;;0.30;0.30;;;;;;;22.35;82.75;97376.22;29395;211;63005;-68
2023/08/21 02:37:38;;;;;;;0.30;0.30;;;;;;;22.34;82.52;97377.38;29395;214;63023;-68